createdAt,value
2024-02-24T00:00:17.445Z,2.10
2024-02-24T00:01:19.037Z,2.43
2024-02-24T00:02:20.723Z,2.65
2024-02-24T00:03:23.094Z,2.58
2024-02-24T00:04:24.927Z,2.83
2024-02-24T00:05:26.664Z,2.20
2024-02-24T00:06:28.293Z,2.13
2024-02-24T00:07:29.891Z,2.00
2024-02-24T00:08:31.542Z,2.75
2024-02-24T00:09:33.144Z,2.45
2024-02-24T00:10:34.808Z,2.30
2024-02-24T00:11:36.490Z,2.23
2024-02-24T00:12:38.123Z,2.60
2024-02-24T00:13:39.695Z,2.65
2024-02-24T00:14:41.306Z,1.65
2024-02-24T00:15:42.993Z,2.30
2024-02-24T00:16:44.626Z,2.60
2024-02-24T00:17:46.246Z,2.38
2024-02-24T00:18:47.905Z,2.53
2024-02-24T00:19:49.453Z,2.63
2024-02-24T00:20:51.066Z,3.08
2024-02-24T00:21:52.663Z,4.53
2024-02-24T00:22:54.237Z,3.85
2024-02-24T00:23:55.780Z,3.60
2024-02-24T00:24:57.323Z,3.53
2024-02-24T00:25:58.911Z,4.00
2024-02-24T00:27:00.527Z,3.70
2024-02-24T00:28:02.115Z,5.80
2024-02-24T00:29:03.736Z,4.40
2024-02-24T00:30:05.644Z,5.78
2024-02-24T00:31:07.226Z,3.80
2024-02-24T00:32:08.817Z,4.77
2024-02-24T00:34:24.130Z,3.22
2024-02-24T00:35:25.693Z,3.90
2024-02-24T00:36:27.308Z,3.80
2024-02-24T00:37:28.850Z,4.10
2024-02-24T00:38:30.584Z,3.95
2024-02-24T00:39:32.175Z,3.85
2024-02-24T00:40:33.735Z,3.88
2024-02-24T00:41:35.369Z,3.80
2024-02-24T00:42:36.991Z,3.53
2024-02-24T00:43:38.555Z,3.90
2024-02-24T00:44:40.134Z,3.45
2024-02-24T00:45:41.789Z,3.70
2024-02-24T00:46:43.357Z,3.38
2024-02-24T00:47:44.971Z,3.15
2024-02-24T00:48:46.605Z,3.50
2024-02-24T00:49:48.204Z,3.38
2024-02-24T00:50:49.796Z,2.92
2024-02-24T00:51:51.452Z,3.20
2024-02-24T00:52:53.005Z,3.80
2024-02-24T00:53:54.630Z,3.65
2024-02-24T00:54:56.242Z,3.28
2024-02-24T00:55:57.799Z,3.40
2024-02-24T00:56:59.355Z,3.45
2024-02-24T00:58:00.914Z,2.00
2024-02-24T00:59:02.666Z,2.08
2024-02-24T01:00:04.809Z,2.00
2024-02-24T01:01:06.463Z,2.17
2024-02-24T01:02:08.159Z,1.98
2024-02-24T01:03:09.752Z,2.30
2024-02-24T01:04:11.417Z,2.22
2024-02-24T01:05:13.305Z,1.70
2024-02-24T01:06:14.957Z,2.30
2024-02-24T01:07:16.553Z,1.67
2024-02-24T01:08:18.136Z,1.55
2024-02-24T01:09:20.954Z,1.88
2024-02-24T01:10:22.909Z,1.52
2024-02-24T01:11:24.583Z,1.50
2024-02-24T01:12:26.238Z,0.93
2024-02-24T01:13:27.819Z,1.30
2024-02-24T01:14:29.706Z,1.20
2024-02-24T01:15:31.285Z,1.38
2024-02-24T01:16:32.825Z,1.65
2024-02-24T01:17:34.574Z,1.33
2024-02-24T01:18:36.346Z,1.20
2024-02-24T01:19:38.438Z,1.50
2024-02-24T01:20:40.005Z,1.30
2024-02-24T01:21:42.271Z,1.80
2024-02-24T01:22:43.844Z,1.13
2024-02-24T01:23:45.499Z,1.53
2024-02-24T01:24:47.124Z,1.58
2024-02-24T01:25:48.809Z,2.10
2024-02-24T01:26:50.398Z,1.40
2024-02-24T01:27:52.020Z,2.00
2024-02-24T01:28:53.570Z,1.40
2024-02-24T01:29:55.143Z,1.55
2024-02-24T01:30:56.707Z,1.50
2024-02-24T01:31:58.702Z,1.55
2024-02-24T01:33:00.472Z,1.83
2024-02-24T01:34:02.365Z,1.50
2024-02-24T01:35:04.277Z,1.73
2024-02-24T01:36:06.081Z,1.70
2024-02-24T01:37:07.658Z,1.40
2024-02-24T01:38:09.282Z,1.00
2024-02-24T01:39:10.825Z,1.50
2024-02-24T01:40:12.591Z,1.10
2024-02-24T01:41:14.265Z,1.45
2024-02-24T01:42:15.900Z,1.13
2024-02-24T01:43:26.257Z,1.50
2024-02-24T01:44:27.813Z,1.10
2024-02-24T01:45:29.405Z,1.10
2024-02-24T01:46:31.023Z,1.38
2024-02-24T01:47:32.770Z,1.60
2024-02-24T01:48:34.616Z,1.65
2024-02-24T01:49:36.805Z,2.40
2024-02-24T01:50:38.609Z,1.63
2024-02-24T01:51:42.618Z,1.27
2024-02-24T01:52:45.765Z,1.20
2024-02-24T01:53:47.504Z,1.38
2024-02-24T01:54:49.395Z,1.40
2024-02-24T01:55:51.592Z,1.80
2024-02-24T01:56:53.769Z,1.70
2024-02-24T01:57:55.631Z,1.55
2024-02-24T01:58:57.216Z,1.48
2024-02-24T01:59:58.819Z,0.90
2024-02-24T02:01:00.922Z,1.48
2024-02-24T02:02:02.545Z,1.55
2024-02-24T02:03:04.194Z,1.88
2024-02-24T02:04:05.927Z,1.52
2024-02-24T02:05:07.880Z,1.73
2024-02-24T02:06:10.190Z,1.77
2024-02-24T02:07:11.901Z,2.08
2024-02-24T02:08:13.796Z,2.10
2024-02-24T02:09:15.466Z,2.33
2024-02-24T02:10:17.027Z,2.13
2024-02-24T02:11:18.719Z,2.63
2024-02-24T02:12:20.425Z,1.65
2024-02-24T02:13:25.042Z,1.42
2024-02-24T02:14:26.728Z,1.77
2024-02-24T02:15:28.315Z,1.63
2024-02-24T02:16:29.917Z,1.50
2024-02-24T02:17:31.794Z,1.90
2024-02-24T02:18:35.563Z,1.33
2024-02-24T02:19:37.589Z,1.35
2024-02-24T02:20:39.220Z,1.08
2024-02-24T02:21:42.807Z,1.45
2024-02-24T02:22:44.350Z,1.40
2024-02-24T02:23:45.944Z,1.13
2024-02-24T02:24:47.793Z,1.25
2024-02-24T02:25:49.390Z,17.20
2024-02-24T02:26:51.004Z,14.40
2024-02-24T02:27:52.619Z,6.18
2024-02-24T02:28:54.155Z,8.60
2024-02-24T02:29:55.698Z,4.20
2024-02-24T02:32:35.417Z,2.72
2024-02-24T02:33:37.063Z,1.92
2024-02-24T02:34:38.699Z,3.65
2024-02-24T02:35:40.304Z,2.97
2024-02-24T02:36:41.790Z,2.17
2024-02-24T02:37:43.273Z,1.98
2024-02-24T02:38:44.785Z,1.73
2024-02-24T02:39:46.293Z,2.78
2024-02-24T02:40:47.806Z,3.50
2024-02-24T02:41:49.319Z,3.10
2024-02-24T02:42:50.883Z,3.20
2024-02-24T02:43:52.406Z,2.25
2024-02-24T02:44:53.889Z,1.75
2024-02-24T02:45:55.464Z,1.65
2024-02-24T02:46:56.969Z,2.87
2024-02-24T02:47:58.544Z,4.07
2024-02-24T02:49:00.243Z,2.40
2024-02-24T02:50:02.090Z,2.17
2024-02-24T02:51:03.753Z,2.50
2024-02-24T02:52:05.335Z,2.45
2024-02-24T02:53:06.836Z,1.80
2024-02-24T02:54:08.408Z,1.95
2024-02-24T02:55:10.035Z,2.20
2024-02-24T02:56:13.461Z,1.88
2024-02-24T02:57:14.984Z,1.67
2024-02-24T02:58:16.465Z,2.22
2024-02-24T02:59:17.974Z,2.28
2024-02-24T03:00:19.576Z,2.65
2024-02-24T03:01:22.620Z,3.15
2024-02-24T03:02:24.268Z,8.05
2024-02-24T03:03:25.938Z,24.05
2024-02-24T03:04:27.462Z,6.22
2024-02-24T03:05:29.294Z,6.18
2024-02-24T03:06:30.944Z,7.25
2024-02-24T03:07:32.504Z,4.00
2024-02-24T03:08:34.136Z,3.40
2024-02-24T03:09:35.727Z,3.53
2024-02-24T03:10:37.245Z,3.53
2024-02-24T03:11:38.962Z,3.28
2024-02-24T03:12:40.562Z,3.40
2024-02-24T03:13:42.088Z,3.65
2024-02-24T03:14:44.030Z,3.30
2024-02-24T03:15:45.561Z,2.85
2024-02-24T03:16:47.154Z,2.97
2024-02-24T03:17:48.715Z,3.00
2024-02-24T03:18:50.494Z,3.05
2024-02-24T03:19:52.098Z,3.40
2024-02-24T03:20:53.656Z,2.60
2024-02-24T03:21:55.272Z,3.47
2024-02-24T03:22:56.780Z,3.83
2024-02-24T03:23:58.570Z,2.88
2024-02-24T03:25:00.080Z,5.40
2024-02-24T03:26:01.599Z,4.65
2024-02-24T03:27:03.215Z,5.60
2024-02-24T03:28:04.889Z,5.90
2024-02-24T03:29:06.559Z,5.25
2024-02-24T03:30:08.449Z,5.47
2024-02-24T03:31:09.954Z,5.63
2024-02-24T03:32:11.488Z,4.15
2024-02-24T03:33:13.167Z,4.72
2024-02-24T03:34:14.781Z,4.35
2024-02-24T03:35:16.360Z,3.97
2024-02-24T03:36:19.386Z,4.28
2024-02-24T03:37:21.085Z,3.70
2024-02-24T03:38:22.646Z,3.77
2024-02-24T03:39:24.180Z,3.42
2024-02-24T03:40:25.826Z,3.47
2024-02-24T03:41:36.142Z,3.80
2024-02-24T03:42:37.708Z,2.95
2024-02-24T03:43:39.373Z,2.97
2024-02-24T03:44:40.946Z,2.88
2024-02-24T03:45:42.593Z,2.50
2024-02-24T03:46:44.118Z,2.53
2024-02-24T03:47:45.898Z,4.07
2024-02-24T03:48:47.656Z,2.37
2024-02-24T03:49:49.297Z,2.30
2024-02-24T03:50:50.918Z,2.28
2024-02-24T03:51:52.433Z,2.05
2024-02-24T03:52:53.965Z,2.30
2024-02-24T03:53:55.481Z,1.90
2024-02-24T03:54:57.014Z,2.03
2024-02-24T03:55:58.523Z,1.60
2024-02-24T03:56:59.997Z,1.80
2024-02-24T03:58:01.549Z,1.67
2024-02-24T03:59:03.062Z,2.17
2024-02-24T04:00:04.754Z,1.98
2024-02-24T04:01:06.292Z,1.70
2024-02-24T04:02:07.851Z,1.60
2024-02-24T04:03:09.453Z,1.75
2024-02-24T04:04:11.057Z,2.05
2024-02-24T04:05:12.694Z,1.67
2024-02-24T04:06:16.075Z,1.90
2024-02-24T04:07:17.604Z,1.60
2024-02-24T04:08:19.158Z,1.85
2024-02-24T04:09:20.695Z,2.23
2024-02-24T04:10:22.234Z,1.85
2024-02-24T04:11:23.829Z,1.67
2024-02-24T04:12:25.433Z,1.70
2024-02-24T04:13:26.988Z,1.65
2024-02-24T04:14:28.506Z,1.60
2024-02-24T04:15:30.000Z,1.63
2024-02-24T04:16:31.509Z,1.70
2024-02-24T04:17:33.128Z,2.17
2024-02-24T04:18:34.827Z,2.25
2024-02-24T04:19:36.403Z,2.03
2024-02-24T04:20:37.975Z,1.88
2024-02-24T04:21:39.498Z,2.30
2024-02-24T04:22:41.190Z,3.00
2024-02-24T04:23:42.804Z,2.95
2024-02-24T04:24:44.348Z,6.50
2024-02-24T04:25:45.800Z,5.03
2024-02-24T04:26:47.371Z,3.40
2024-02-24T04:27:48.867Z,3.38
2024-02-24T04:28:50.434Z,3.88
2024-02-24T04:29:51.992Z,4.10
2024-02-24T04:30:53.523Z,4.00
2024-02-24T04:31:55.003Z,4.03
2024-02-24T04:32:56.780Z,3.13
2024-02-24T04:33:58.605Z,3.45
2024-02-24T04:35:00.193Z,3.50
2024-02-24T04:36:04.802Z,2.67
2024-02-24T04:37:06.316Z,2.80
2024-02-24T04:38:08.161Z,3.00
2024-02-24T04:39:10.181Z,2.78
2024-02-24T04:40:11.778Z,3.20
2024-02-24T04:41:13.316Z,2.40
2024-02-24T04:42:14.841Z,1.77
2024-02-24T04:43:16.344Z,1.63
2024-02-24T04:44:17.919Z,2.33
2024-02-24T04:45:19.457Z,1.83
2024-02-24T04:46:21.063Z,2.83
2024-02-24T04:47:22.706Z,2.53
2024-02-24T04:48:24.501Z,2.13
2024-02-24T04:49:26.281Z,2.08
2024-02-24T04:50:27.941Z,2.03
2024-02-24T04:51:29.511Z,1.90
2024-02-24T04:52:31.029Z,2.20
2024-02-24T04:53:32.565Z,2.13
2024-02-24T04:54:34.225Z,2.40
2024-02-24T04:55:35.807Z,2.55
2024-02-24T04:56:37.339Z,1.98
2024-02-24T04:57:38.896Z,2.20
2024-02-24T04:58:40.412Z,2.13
2024-02-24T04:59:42.110Z,2.30
2024-02-24T05:00:43.731Z,2.20
2024-02-24T05:01:45.235Z,1.88
2024-02-24T05:02:47.008Z,2.42
2024-02-24T05:03:48.723Z,2.13
2024-02-24T05:04:50.246Z,2.15
2024-02-24T05:05:51.899Z,1.92
2024-02-24T05:06:53.509Z,1.83
2024-02-24T05:07:55.035Z,2.20
2024-02-24T05:08:56.614Z,1.90
2024-02-24T05:09:58.258Z,2.10
2024-02-24T05:10:59.791Z,2.10
2024-02-24T05:12:01.372Z,2.17
2024-02-24T05:13:06.110Z,1.80
2024-02-24T05:14:08.103Z,1.92
2024-02-24T05:15:09.871Z,2.20
2024-02-24T05:16:11.350Z,1.70
2024-02-24T05:17:15.255Z,1.83
2024-02-24T05:18:16.920Z,2.22
2024-02-24T05:19:18.573Z,2.00
2024-02-24T05:20:20.236Z,1.90
2024-02-24T05:21:22.154Z,2.17
2024-02-24T05:22:23.678Z,2.30
2024-02-24T05:23:25.176Z,2.42
2024-02-24T05:24:26.730Z,2.00
2024-02-24T05:25:28.365Z,2.80
2024-02-24T05:26:30.676Z,4.30
2024-02-24T05:27:32.272Z,4.10
2024-02-24T05:28:33.770Z,3.78
2024-02-24T05:29:35.374Z,3.30
2024-02-24T05:30:36.940Z,2.97
2024-02-24T05:31:38.541Z,2.30
2024-02-24T05:32:40.181Z,2.20
2024-02-24T05:33:41.861Z,2.60
2024-02-24T05:34:43.753Z,2.50
2024-02-24T05:35:45.326Z,2.47
2024-02-24T05:36:46.881Z,2.65
2024-02-24T05:37:48.418Z,3.10
2024-02-24T05:38:50.083Z,2.42
2024-02-24T05:39:51.803Z,2.90
2024-02-24T05:40:53.330Z,2.47
2024-02-24T05:41:54.956Z,2.80
2024-02-24T05:42:56.509Z,2.55
2024-02-24T05:43:58.012Z,2.47
2024-02-24T05:44:59.539Z,2.30
2024-02-24T05:46:03.041Z,2.80
2024-02-24T05:47:04.884Z,2.33
2024-02-24T05:48:06.652Z,2.75
2024-02-24T05:49:08.448Z,2.40
2024-02-24T05:50:10.220Z,2.83
2024-02-24T05:51:12.181Z,2.38
2024-02-24T05:52:13.735Z,2.60
2024-02-24T05:53:15.273Z,2.25
2024-02-24T05:54:16.817Z,2.30
2024-02-24T05:55:18.359Z,2.55
2024-02-24T05:56:20.006Z,3.90
2024-02-24T05:57:21.555Z,3.22
2024-02-24T05:58:23.072Z,2.97
2024-02-24T05:59:24.614Z,3.05
2024-02-24T06:00:26.129Z,2.90
2024-02-24T06:01:27.695Z,2.72
2024-02-24T06:02:29.204Z,2.67
2024-02-24T06:03:30.886Z,3.13
2024-02-24T06:04:32.486Z,3.40
2024-02-24T06:05:34.145Z,3.22
2024-02-24T06:06:35.791Z,3.45
2024-02-24T06:07:37.291Z,3.08
2024-02-24T06:08:38.965Z,3.33
2024-02-24T06:09:40.524Z,3.13
2024-02-24T06:10:42.074Z,2.92
2024-02-24T06:11:43.752Z,2.92
2024-02-24T06:12:45.438Z,3.90
2024-02-24T06:13:46.972Z,3.78
2024-02-24T06:14:48.481Z,3.50
2024-02-24T06:15:49.998Z,4.47
2024-02-24T06:16:51.559Z,4.10
2024-02-24T06:17:53.144Z,4.30
2024-02-24T06:18:54.742Z,4.45
2024-02-24T06:19:56.338Z,4.60
2024-02-24T06:20:57.875Z,5.03
2024-02-24T06:21:59.458Z,5.55
2024-02-24T06:23:01.024Z,5.17
2024-02-24T06:24:02.517Z,5.22
2024-02-24T06:25:04.415Z,7.30
2024-02-24T06:26:05.959Z,11.13
2024-02-24T06:27:07.477Z,9.93
2024-02-24T06:28:08.991Z,9.27
2024-02-24T06:29:10.577Z,6.57
2024-02-24T06:30:12.269Z,7.07
2024-02-24T06:31:13.859Z,10.50
2024-02-24T06:32:15.415Z,8.43
2024-02-24T06:33:17.016Z,9.27
2024-02-24T06:34:18.603Z,7.55
2024-02-24T06:35:20.273Z,9.63
2024-02-24T06:36:21.850Z,9.98
2024-02-24T06:37:23.355Z,8.65
2024-02-24T06:38:24.836Z,8.55
2024-02-24T06:39:26.340Z,8.65
2024-02-24T06:40:33.506Z,9.23
2024-02-24T06:41:42.767Z,7.88
2024-02-24T06:42:44.344Z,5.95
2024-02-24T06:43:45.854Z,6.10
2024-02-24T06:44:47.441Z,7.38
2024-02-24T06:45:48.940Z,6.00
2024-02-24T06:46:52.962Z,5.43
2024-02-24T06:47:56.150Z,6.15
2024-02-24T06:48:57.751Z,4.10
2024-02-24T06:49:59.379Z,4.63
2024-02-24T06:51:00.955Z,3.80
2024-02-24T06:52:02.457Z,4.00
2024-02-24T06:53:04.128Z,3.85
2024-02-24T06:54:05.655Z,4.53
2024-02-24T06:55:07.270Z,4.57
2024-02-24T06:56:09.279Z,5.47
2024-02-24T06:57:10.863Z,4.40
2024-02-24T06:58:12.378Z,4.72
2024-02-24T06:59:14.278Z,3.42
2024-02-24T07:00:16.162Z,4.40
2024-02-24T07:01:24.056Z,4.05
2024-02-24T07:02:25.718Z,4.30
2024-02-24T07:03:27.433Z,3.85
2024-02-24T07:04:29.139Z,4.13
2024-02-24T07:05:30.675Z,3.92
2024-02-24T07:06:32.257Z,3.88
2024-02-24T07:07:33.744Z,3.85
2024-02-24T07:08:35.365Z,3.75
2024-02-24T07:09:36.926Z,4.25
2024-02-24T07:10:38.413Z,3.85
2024-02-24T07:11:40.025Z,3.90
2024-02-24T07:12:43.719Z,4.15
2024-02-24T07:13:45.949Z,4.00
2024-02-24T07:14:47.558Z,3.47
2024-02-24T07:15:49.124Z,3.80
2024-02-24T07:16:50.618Z,4.50
2024-02-24T07:18:52.319Z,3.50
2024-02-24T07:19:54.462Z,3.30
2024-02-24T07:20:56.154Z,8.40
2024-02-24T07:21:57.803Z,11.25
2024-02-24T07:22:59.321Z,8.60
2024-02-24T07:24:00.876Z,19.10
2024-02-24T07:25:02.421Z,22.00
2024-02-24T07:26:04.079Z,33.13
2024-02-24T07:27:05.645Z,17.80
2024-02-24T07:28:07.212Z,13.50
2024-02-24T07:29:08.869Z,4.28
2024-02-24T07:30:10.564Z,4.07
2024-02-24T07:31:12.033Z,4.13
2024-02-24T07:32:13.650Z,3.88
2024-02-24T07:33:15.468Z,3.72
2024-02-24T07:34:17.223Z,3.83
2024-02-24T07:35:18.769Z,3.80
2024-02-24T07:36:20.313Z,3.33
2024-02-24T07:37:21.842Z,2.83
2024-02-24T07:38:23.375Z,3.65
2024-02-24T07:39:24.954Z,3.25
2024-02-24T07:40:26.438Z,2.88
2024-02-24T07:41:27.996Z,3.05
2024-02-24T07:42:29.544Z,3.28
2024-02-24T07:43:31.049Z,3.20
2024-02-24T07:44:32.638Z,3.22
2024-02-24T07:45:34.170Z,3.65
2024-02-24T07:46:35.681Z,3.33
2024-02-24T07:47:37.325Z,4.55
2024-02-24T07:48:38.989Z,13.57
2024-02-24T07:49:40.620Z,12.45
2024-02-24T07:50:42.212Z,5.28
2024-02-24T07:51:43.746Z,3.40
2024-02-24T07:52:47.586Z,3.95
2024-02-24T07:53:49.403Z,2.47
2024-02-24T07:54:50.987Z,2.80
2024-02-24T07:55:52.524Z,2.95
2024-02-24T07:56:54.193Z,2.83
2024-02-24T07:57:55.855Z,3.03
2024-02-24T07:58:57.401Z,2.70
2024-02-24T07:59:58.907Z,2.42
2024-02-24T08:01:00.424Z,2.40
2024-02-24T08:02:01.913Z,2.10
2024-02-24T08:03:03.493Z,2.63
2024-02-24T08:04:05.179Z,2.63
2024-02-24T08:05:06.919Z,2.72
2024-02-24T08:06:08.431Z,3.15
2024-02-24T08:07:09.958Z,2.47
2024-02-24T08:08:11.482Z,2.53
2024-02-24T08:09:13.694Z,2.75
2024-02-24T08:10:15.340Z,2.58
2024-02-24T08:11:16.927Z,2.55
2024-02-24T08:12:18.771Z,2.38
2024-02-24T08:13:20.349Z,2.10
2024-02-24T08:14:21.930Z,2.30
2024-02-24T08:15:23.510Z,2.17
2024-02-24T08:16:25.057Z,2.10
2024-02-24T08:17:26.655Z,2.20
2024-02-24T08:18:28.336Z,2.30
2024-02-24T08:19:29.950Z,2.70
2024-02-24T08:20:33.092Z,3.50
2024-02-24T08:21:35.346Z,2.75
2024-02-24T08:22:36.861Z,2.80
2024-02-24T08:23:38.466Z,2.45
2024-02-24T08:24:40.035Z,2.30
2024-02-24T08:25:41.698Z,2.72
2024-02-24T08:26:43.605Z,2.58
2024-02-24T08:27:45.092Z,2.20
2024-02-24T08:28:46.621Z,2.47
2024-02-24T08:29:48.229Z,2.83
2024-02-24T08:30:49.775Z,1.80
2024-02-24T08:31:51.300Z,1.98
2024-02-24T08:32:52.954Z,2.30
2024-02-24T08:33:54.615Z,3.28
2024-02-24T08:34:56.329Z,2.38
2024-02-24T08:35:58.049Z,2.70
2024-02-24T08:36:59.657Z,2.38
2024-02-24T08:38:01.212Z,1.93
2024-02-24T08:39:03.217Z,2.30
2024-02-24T08:40:05.058Z,2.50
2024-02-24T08:41:06.685Z,2.70
2024-02-24T08:42:08.691Z,2.10
2024-02-24T08:43:10.404Z,2.42
2024-02-24T08:44:11.994Z,2.67
2024-02-24T08:45:13.669Z,1.60
2024-02-24T08:46:15.378Z,1.20
2024-02-24T08:47:16.924Z,1.00
2024-02-24T08:48:18.555Z,1.30
2024-02-24T08:49:20.193Z,1.13
2024-02-24T08:50:21.887Z,1.40
2024-02-24T08:51:23.830Z,1.83
2024-02-24T08:52:32.933Z,1.52
2024-02-24T08:53:39.629Z,2.30
2024-02-24T08:54:41.189Z,2.70
2024-02-24T08:55:42.686Z,1.42
2024-02-24T08:56:44.278Z,1.30
2024-02-24T08:57:45.768Z,1.40
2024-02-24T08:58:47.816Z,1.30
2024-02-24T08:59:49.416Z,1.02
2024-02-24T09:00:50.996Z,1.65
2024-02-24T09:01:53.260Z,1.20
2024-02-24T09:02:54.928Z,0.95
2024-02-24T09:03:56.561Z,1.00
2024-02-24T09:04:58.134Z,1.30
2024-02-24T09:05:59.768Z,1.13
2024-02-24T09:07:01.441Z,1.35
2024-02-24T09:08:03.083Z,1.20
2024-02-24T09:09:04.595Z,1.27
2024-02-24T09:10:08.129Z,1.00
2024-02-24T09:11:10.835Z,1.05
2024-02-24T09:12:12.510Z,1.58
2024-02-24T09:13:14.084Z,1.48
2024-02-24T09:14:15.678Z,1.70
2024-02-24T09:15:17.243Z,1.40
2024-02-24T09:16:18.766Z,1.02
2024-02-24T09:17:20.536Z,0.85
2024-02-24T09:18:22.129Z,1.00
2024-02-24T09:19:23.743Z,1.10
2024-02-24T09:20:25.323Z,1.00
2024-02-24T09:21:26.866Z,2.80
2024-02-24T09:22:28.977Z,0.90
2024-02-24T09:23:30.542Z,1.00
2024-02-24T09:24:32.052Z,0.95
2024-02-24T09:25:33.666Z,1.50
2024-02-24T09:26:35.391Z,0.90
2024-02-24T09:27:37.007Z,1.13
2024-02-24T09:28:38.650Z,1.20
2024-02-24T09:29:40.187Z,0.93
2024-02-24T09:30:41.752Z,0.95
2024-02-24T09:31:43.316Z,1.27
2024-02-24T09:32:44.944Z,1.10
2024-02-24T09:33:46.680Z,0.90
2024-02-24T09:34:48.310Z,1.10
2024-02-24T09:35:49.988Z,1.13
2024-02-24T09:36:51.485Z,0.65
2024-02-24T09:37:53.058Z,1.17
2024-02-24T09:38:54.736Z,0.85
2024-02-24T09:39:56.329Z,0.90
2024-02-24T09:40:57.819Z,0.88
2024-02-24T09:42:00.001Z,1.52
2024-02-24T09:43:02.090Z,0.80
2024-02-24T09:44:05.034Z,1.10
2024-02-24T09:45:11.561Z,0.95
2024-02-24T09:46:13.673Z,1.02
2024-02-24T09:47:15.765Z,0.98
2024-02-24T09:48:17.630Z,1.10
2024-02-24T09:49:19.646Z,1.17
2024-02-24T09:50:21.261Z,1.00
2024-02-24T09:51:22.879Z,1.08
2024-02-24T09:52:24.708Z,1.23
2024-02-24T09:53:26.462Z,0.80
2024-02-24T09:54:27.993Z,1.00
2024-02-24T09:55:29.485Z,0.98
2024-02-24T09:56:31.274Z,1.20
2024-02-24T09:57:34.191Z,0.90
2024-02-24T09:58:35.853Z,1.35
2024-02-24T09:59:37.511Z,1.27
2024-02-24T10:00:39.300Z,1.13
2024-02-24T10:01:40.849Z,1.00
2024-02-24T10:02:42.719Z,1.20
2024-02-24T10:03:44.713Z,0.95
2024-02-24T10:04:47.130Z,1.02
2024-02-24T10:05:49.411Z,1.42
2024-02-24T10:06:50.957Z,1.25
2024-02-24T10:07:52.441Z,0.88
2024-02-24T10:08:53.955Z,0.85
2024-02-24T10:09:55.625Z,1.00
2024-02-24T10:10:57.229Z,1.10
2024-02-24T10:11:58.806Z,1.35
2024-02-24T10:13:00.843Z,0.90
2024-02-24T10:14:02.845Z,1.38
2024-02-24T10:15:04.574Z,0.80
2024-02-24T10:16:09.228Z,0.98
2024-02-24T10:17:10.791Z,1.20
2024-02-24T10:19:15.632Z,0.80
2024-02-24T10:20:17.271Z,1.10
2024-02-24T10:21:18.782Z,1.23
2024-02-24T10:22:20.267Z,1.63
2024-02-24T10:23:21.878Z,1.50
2024-02-24T10:24:24.237Z,1.52
2024-02-24T10:25:25.854Z,1.17
2024-02-24T10:26:30.382Z,1.08
2024-02-24T10:27:32.290Z,1.10
2024-02-24T10:28:33.898Z,1.13
2024-02-24T10:29:35.430Z,0.90
2024-02-24T10:30:37.293Z,1.00
2024-02-24T10:31:39.178Z,0.80
2024-02-24T10:32:41.161Z,1.00
2024-02-24T10:33:43.192Z,0.93
2024-02-24T10:34:44.990Z,1.33
2024-02-24T10:35:48.826Z,0.90
2024-02-24T10:36:52.381Z,1.23
2024-02-24T10:38:10.903Z,1.20
2024-02-24T10:39:17.721Z,1.00
2024-02-24T10:40:20.357Z,1.20
2024-02-24T10:41:25.666Z,1.45
2024-02-24T10:42:29.640Z,1.40
2024-02-24T10:43:32.221Z,1.35
2024-02-24T10:44:37.030Z,1.02
2024-02-24T10:45:38.669Z,1.20
2024-02-24T10:46:40.636Z,1.25
2024-02-24T10:48:48.482Z,1.50
2024-02-24T10:49:50.247Z,1.10
2024-02-24T10:50:52.019Z,1.30
2024-02-24T10:51:53.619Z,1.10
2024-02-24T10:52:56.355Z,1.20
2024-02-24T10:54:00.038Z,1.10
2024-02-24T10:55:01.729Z,1.05
2024-02-24T10:56:03.396Z,1.10
2024-02-24T10:57:05.105Z,1.08
2024-02-24T10:58:06.866Z,1.40
2024-02-24T10:59:12.304Z,1.13
2024-02-24T11:00:26.294Z,1.10
2024-02-24T11:01:29.401Z,1.05
2024-02-24T11:02:31.691Z,1.75
2024-02-24T11:03:33.229Z,0.90
2024-02-24T11:04:35.405Z,1.27
2024-02-24T11:05:37.231Z,1.33
2024-02-24T11:06:45.792Z,1.92
2024-02-24T11:07:47.465Z,1.23
2024-02-24T11:08:49.082Z,1.42
2024-02-24T11:09:53.977Z,1.58
2024-02-24T11:10:56.074Z,1.88
2024-02-24T11:12:23.838Z,1.67
2024-02-24T11:13:25.522Z,1.77
2024-02-24T11:14:27.016Z,1.50
2024-02-24T11:15:28.720Z,1.67
2024-02-24T11:16:30.269Z,1.30
2024-02-24T11:17:50.555Z,1.30
2024-02-24T11:18:52.201Z,1.30
2024-02-24T11:19:53.850Z,1.48
2024-02-24T11:20:55.595Z,1.13
2024-02-24T11:22:01.176Z,1.52
2024-02-24T11:23:21.633Z,1.65
2024-02-24T11:24:23.264Z,0.98
2024-02-24T11:25:24.882Z,1.57
2024-02-24T11:26:26.388Z,1.40
2024-02-24T11:27:32.031Z,1.52
2024-02-24T11:28:33.753Z,1.80
2024-02-24T11:29:35.355Z,1.30
2024-02-24T11:30:36.852Z,1.00
2024-02-24T11:31:42.764Z,1.20
2024-02-24T11:32:46.739Z,1.35
2024-02-24T11:33:58.054Z,1.10
2024-02-24T11:34:59.887Z,1.50
2024-02-24T11:36:01.590Z,1.77
2024-02-24T11:37:03.282Z,1.20
2024-02-24T11:38:05.017Z,1.58
2024-02-24T11:39:10.212Z,1.35
2024-02-24T11:40:12.031Z,1.25
2024-02-24T11:41:13.699Z,1.27
2024-02-24T11:42:15.478Z,1.27
2024-02-24T11:43:17.866Z,1.15
2024-02-24T11:44:19.851Z,1.40
2024-02-24T11:45:23.500Z,1.30
2024-02-24T11:46:25.849Z,1.57
2024-02-24T11:47:28.660Z,2.20
2024-02-24T11:48:30.496Z,3.22
2024-02-24T11:49:32.255Z,1.88
2024-02-24T11:50:33.932Z,1.90
2024-02-24T11:51:35.658Z,1.60
2024-02-24T12:36:33.182Z,0.90
2024-02-24T12:37:42.308Z,1.30
2024-02-24T12:38:44.688Z,1.13
2024-02-24T12:39:47.056Z,1.10
2024-02-24T12:40:50.344Z,1.02
2024-02-24T12:41:52.445Z,1.70
2024-02-24T12:42:55.592Z,1.40
2024-02-24T12:43:57.505Z,1.70
2024-02-24T12:44:59.973Z,1.10
2024-02-24T12:46:02.889Z,1.25
2024-02-24T12:47:09.185Z,1.30
2024-02-24T12:48:11.196Z,1.60
2024-02-24T12:49:15.772Z,1.75
2024-02-24T12:50:22.498Z,2.30
2024-02-24T12:51:24.911Z,1.50
2024-02-24T12:52:27.294Z,1.83
2024-02-24T12:53:37.083Z,1.83
2024-02-24T12:54:39.185Z,1.60
2024-02-24T12:55:48.552Z,1.10
2024-02-24T12:56:51.976Z,1.20
2024-02-24T12:58:06.965Z,1.90
2024-02-24T12:59:15.862Z,1.33
2024-02-24T13:00:26.141Z,1.30
2024-02-24T13:01:30.156Z,1.40
2024-02-24T13:02:34.480Z,1.45
2024-02-24T13:03:55.365Z,1.98
2024-02-24T13:04:57.188Z,1.60
2024-02-24T13:06:15.587Z,1.57
2024-02-24T13:07:19.643Z,1.33
2024-02-24T13:08:21.459Z,1.88
2024-02-24T13:09:29.478Z,1.63
2024-02-24T13:10:37.233Z,2.08
2024-02-24T13:11:39.806Z,1.52
2024-02-24T13:12:50.696Z,1.23
2024-02-24T13:13:52.880Z,1.60
2024-02-24T13:15:00.217Z,1.30
2024-02-24T13:16:05.819Z,1.30
2024-02-24T13:17:08.212Z,1.80
2024-02-24T13:18:13.467Z,3.15
2024-02-24T13:19:17.115Z,1.58
2024-02-24T13:21:46.086Z,1.73
2024-02-24T13:22:48.702Z,1.50
2024-02-24T13:23:55.619Z,1.55
2024-02-24T13:25:04.921Z,2.13
2024-02-24T13:26:08.134Z,2.42
2024-02-24T13:27:13.664Z,1.88
2024-02-24T13:28:17.976Z,2.73
2024-02-24T13:29:23.300Z,2.35
2024-02-24T13:30:26.882Z,1.67
2024-02-24T13:31:31.278Z,2.08
2024-02-24T13:32:34.566Z,2.50
2024-02-24T13:33:36.806Z,3.35
2024-02-24T13:34:45.064Z,3.38
2024-02-24T13:35:51.851Z,2.80
2024-02-24T13:36:56.122Z,1.70
2024-02-24T13:37:58.578Z,1.38
2024-02-24T13:39:01.027Z,2.53
2024-02-24T13:40:05.123Z,2.17
2024-02-24T13:41:09.072Z,1.75
2024-02-24T13:42:11.190Z,1.73
2024-02-24T13:43:18.822Z,1.60
2024-02-24T13:44:33.581Z,1.73
2024-02-24T13:45:36.604Z,1.40
2024-02-24T13:46:43.645Z,1.58
2024-02-24T13:47:48.150Z,1.60
2024-02-24T13:49:06.564Z,1.60
2024-02-24T13:50:11.878Z,1.40
2024-02-24T13:51:13.696Z,1.30
2024-02-24T13:52:17.438Z,1.35
2024-02-24T13:53:20.975Z,1.52
2024-02-24T13:54:26.664Z,1.73
2024-02-24T13:55:32.388Z,1.90
2024-02-24T13:56:38.771Z,1.70
2024-02-24T13:57:43.751Z,1.60
2024-02-24T13:58:45.750Z,1.70
2024-02-24T13:59:47.864Z,1.70
2024-02-24T14:00:50.025Z,1.70
2024-02-24T14:01:54.068Z,1.40
2024-02-24T14:02:56.835Z,1.10
2024-02-24T14:04:00.193Z,2.10
2024-02-24T14:05:02.389Z,3.30
2024-02-24T14:06:05.744Z,3.33
2024-02-24T14:07:08.118Z,2.67
2024-02-24T14:08:10.718Z,1.83
2024-02-24T14:09:12.903Z,1.40
2024-02-24T14:10:16.366Z,2.00
2024-02-24T14:11:18.090Z,1.50
2024-02-24T14:12:19.924Z,0.93
2024-02-24T14:13:21.896Z,1.20
2024-02-24T14:14:24.368Z,1.70
2024-02-24T14:15:26.378Z,1.30
2024-02-24T14:16:28.262Z,1.70
2024-02-24T14:17:30.178Z,1.38
2024-02-24T14:18:32.220Z,1.67
2024-02-24T14:19:34.399Z,1.70
2024-02-24T14:20:36.306Z,1.20
2024-02-24T14:21:38.165Z,1.70
2024-02-24T14:22:41.417Z,1.48
2024-02-24T14:23:43.139Z,1.55
2024-02-24T14:24:44.942Z,1.75
2024-02-24T14:25:46.851Z,1.42
2024-02-24T14:26:48.631Z,1.65
2024-02-24T14:27:51.333Z,1.98
2024-02-24T14:29:00.585Z,1.80
2024-02-24T14:30:04.013Z,1.40
2024-02-24T14:31:06.706Z,1.55
2024-02-24T14:32:08.618Z,1.87
2024-02-24T14:33:11.149Z,1.75
2024-02-24T14:34:14.316Z,2.17
2024-02-24T14:35:20.475Z,1.92
2024-02-24T14:36:22.344Z,1.65
2024-02-24T14:37:24.036Z,1.92
2024-02-24T14:38:25.681Z,1.60
2024-02-24T14:39:27.332Z,1.50
2024-02-24T15:24:11.510Z,2.50
2024-02-24T15:25:13.230Z,2.70